sensor_id;sensor_type;location;lat;lon;timestamp;temperature;humidity
770;DHT22;368;48.698;9.116;2023-03-14T00:01:07;9.20;99.90
770;DHT22;368;48.698;9.116;2023-03-14T00:03:33;9.10;99.90
770;DHT22;368;48.698;9.116;2023-03-14T00:06:02;9.30;99.90
770;DHT22;368;48.698;9.116;2023-03-14T00:08:28;8.90;99.90
770;DHT22;368;48.698;9.116;2023-03-14T00:10:55;9.10;99.90
770;DHT22;368;48.698;9.116;2023-03-14T00:13:29;8.90;99.90
770;DHT22;368;48.698;9.116;2023-03-14T00:16:01;9.20;99.90
770;DHT22;368;48.698;9.116;2023-03-14T00:18:28;9.30;99.90
770;DHT22;368;48.698;9.116;2023-03-14T00:20:58;8.90;99.90
770;DHT22;368;48.698;9.116;2023-03-14T00:23:27;9.20;99.90
770;DHT22;368;48.698;9.116;2023-03-14T00:25:57;9.00;99.90
770;DHT22;368;48.698;9.116;2023-03-14T00:28:27;9.30;99.90
770;DHT22;368;48.698;9.116;2023-03-14T00:30:54;9.00;99.90
770;DHT22;368;48.698;9.116;2023-03-14T00:33:23;9.20;99.90
770;DHT22;368;48.698;9.116;2023-03-14T00:35:54;9.30;99.90
770;DHT22;368;48.698;9.116;2023-03-14T00:38:22;9.30;99.90
770;DHT22;368;48.698;9.116;2023-03-14T00:40:50;9.10;99.90
770;DHT22;368;48.698;9.116;2023-03-14T00:43:17;9.20;99.90
770;DHT22;368;48.698;9.116;2023-03-14T00:45:44;9.20;99.90
770;DHT22;368;48.698;9.116;2023-03-14T00:48:11;9.20;99.90
770;DHT22;368;48.698;9.116;2023-03-14T00:50:40;9.20;99.90
770;DHT22;368;48.698;9.116;2023-03-14T00:53:07;9.30;99.90
770;DHT22;368;48.698;9.116;2023-03-14T00:55:36;9.00;99.90
770;DHT22;368;48.698;9.116;2023-03-14T00:58:03;9.10;99.90
770;DHT22;368;48.698;9.116;2023-03-14T01:00:30;9.30;99.90
770;DHT22;368;48.698;9.116;2023-03-14T01:02:57;9.20;99.90
770;DHT22;368;48.698;9.116;2023-03-14T01:05:24;9.00;99.90
770;DHT22;368;48.698;9.116;2023-03-14T01:07:52;9.10;99.90
770;DHT22;368;48.698;9.116;2023-03-14T01:10:19;9.20;99.90
770;DHT22;368;48.698;9.116;2023-03-14T01:12:46;9.20;99.90
770;DHT22;368;48.698;9.116;2023-03-14T01:15:12;9.20;99.90
770;DHT22;368;48.698;9.116;2023-03-14T01:17:39;9.20;99.90
770;DHT22;368;48.698;9.116;2023-03-14T01:20:09;9.30;99.90
770;DHT22;368;48.698;9.116;2023-03-14T01:22:36;9.10;99.90
770;DHT22;368;48.698;9.116;2023-03-14T01:25:06;9.10;99.90
770;DHT22;368;48.698;9.116;2023-03-14T01:27:33;9.00;99.90
770;DHT22;368;48.698;9.116;2023-03-14T01:30:00;9.10;99.90
770;DHT22;368;48.698;9.116;2023-03-14T01:32:27;9.20;99.90
770;DHT22;368;48.698;9.116;2023-03-14T01:34:54;9.20;99.90
770;DHT22;368;48.698;9.116;2023-03-14T01:37:21;9.30;99.90
770;DHT22;368;48.698;9.116;2023-03-14T01:39:48;9.30;99.90
770;DHT22;368;48.698;9.116;2023-03-14T01:42:16;9.10;99.90
770;DHT22;368;48.698;9.116;2023-03-14T01:44:51;8.90;99.90
770;DHT22;368;48.698;9.116;2023-03-14T01:47:18;9.30;99.90
770;DHT22;368;48.698;9.116;2023-03-14T01:49:47;9.00;99.90
770;DHT22;368;48.698;9.116;2023-03-14T01:52:18;9.10;99.90
770;DHT22;368;48.698;9.116;2023-03-14T01:54:49;9.00;99.90
770;DHT22;368;48.698;9.116;2023-03-14T01:57:22;8.90;99.90
770;DHT22;368;48.698;9.116;2023-03-14T01:59:53;8.80;99.90
770;DHT22;368;48.698;9.116;2023-03-14T02:02:21;8.80;99.90
770;DHT22;368;48.698;9.116;2023-03-14T02:04:48;9.00;99.90
770;DHT22;368;48.698;9.116;2023-03-14T02:07:17;9.00;99.90
770;DHT22;368;48.698;9.116;2023-03-14T02:09:46;8.80;99.90
770;DHT22;368;48.698;9.116;2023-03-14T02:12:16;8.80;99.90
770;DHT22;368;48.698;9.116;2023-03-14T02:14:45;8.70;99.90
770;DHT22;368;48.698;9.116;2023-03-14T02:17:14;9.10;99.90
770;DHT22;368;48.698;9.116;2023-03-14T02:20:08;8.80;99.90
770;DHT22;368;48.698;9.116;2023-03-14T02:22:38;9.10;99.90
770;DHT22;368;48.698;9.116;2023-03-14T02:25:08;8.80;99.90
770;DHT22;368;48.698;9.116;2023-03-14T02:27:40;8.90;99.90
770;DHT22;368;48.698;9.116;2023-03-14T02:30:10;8.70;99.90
770;DHT22;368;48.698;9.116;2023-03-14T02:32:39;8.80;99.90
770;DHT22;368;48.698;9.116;2023-03-14T02:35:09;8.80;99.90
770;DHT22;368;48.698;9.116;2023-03-14T02:37:41;8.80;99.90
770;DHT22;368;48.698;9.116;2023-03-14T02:40:09;8.80;99.90
770;DHT22;368;48.698;9.116;2023-03-14T02:42:36;9.00;99.90
770;DHT22;368;48.698;9.116;2023-03-14T02:45:34;8.90;99.90
770;DHT22;368;48.698;9.116;2023-03-14T02:48:04;8.70;99.90
770;DHT22;368;48.698;9.116;2023-03-14T02:50:34;8.90;99.90
770;DHT22;368;48.698;9.116;2023-03-14T02:53:01;8.90;99.90
770;DHT22;368;48.698;9.116;2023-03-14T02:55:27;8.70;99.90
770;DHT22;368;48.698;9.116;2023-03-14T02:57:54;8.90;99.90
770;DHT22;368;48.698;9.116;2023-03-14T03:00:21;8.80;99.90
770;DHT22;368;48.698;9.116;2023-03-14T03:02:51;8.90;99.90
770;DHT22;368;48.698;9.116;2023-03-14T03:05:18;8.90;99.90
770;DHT22;368;48.698;9.116;2023-03-14T03:07:45;8.50;99.90
770;DHT22;368;48.698;9.116;2023-03-14T03:10:12;8.50;99.90
770;DHT22;368;48.698;9.116;2023-03-14T03:12:39;8.70;99.90
770;DHT22;368;48.698;9.116;2023-03-14T03:15:06;8.50;99.90
770;DHT22;368;48.698;9.116;2023-03-14T03:17:33;8.60;99.90
770;DHT22;368;48.698;9.116;2023-03-14T03:20:02;8.70;99.90
770;DHT22;368;48.698;9.116;2023-03-14T03:22:30;8.90;99.90
770;DHT22;368;48.698;9.116;2023-03-14T03:24:57;8.70;99.90
770;DHT22;368;48.698;9.116;2023-03-14T03:27:23;8.50;99.90
770;DHT22;368;48.698;9.116;2023-03-14T03:29:50;8.50;99.90
770;DHT22;368;48.698;9.116;2023-03-14T03:32:17;8.40;99.90
770;DHT22;368;48.698;9.116;2023-03-14T03:34:44;8.40;99.90
770;DHT22;368;48.698;9.116;2023-03-14T03:37:12;8.40;99.90
770;DHT22;368;48.698;9.116;2023-03-14T03:39:39;8.50;99.90
770;DHT22;368;48.698;9.116;2023-03-14T03:42:06;8.40;99.90
770;DHT22;368;48.698;9.116;2023-03-14T03:44:33;8.20;99.90
770;DHT22;368;48.698;9.116;2023-03-14T03:47:00;8.50;99.90
770;DHT22;368;48.698;9.116;2023-03-14T03:49:28;8.50;99.90
770;DHT22;368;48.698;9.116;2023-03-14T03:51:55;8.50;99.90
770;DHT22;368;48.698;9.116;2023-03-14T03:54:23;8.60;99.90
770;DHT22;368;48.698;9.116;2023-03-14T03:56:50;8.40;99.90
770;DHT22;368;48.698;9.116;2023-03-14T03:59:17;8.30;99.90
770;DHT22;368;48.698;9.116;2023-03-14T04:01:44;8.40;99.90
770;DHT22;368;48.698;9.116;2023-03-14T04:04:11;8.20;99.90
770;DHT22;368;48.698;9.116;2023-03-14T04:06:38;8.20;99.90
770;DHT22;368;48.698;9.116;2023-03-14T04:09:07;8.20;99.90
770;DHT22;368;48.698;9.116;2023-03-14T04:11:35;8.40;99.90
770;DHT22;368;48.698;9.116;2023-03-14T04:14:02;8.30;99.90
770;DHT22;368;48.698;9.116;2023-03-14T04:16:29;8.10;99.90
770;DHT22;368;48.698;9.116;2023-03-14T04:18:57;8.10;99.90
770;DHT22;368;48.698;9.116;2023-03-14T04:21:24;8.10;99.90
770;DHT22;368;48.698;9.116;2023-03-14T04:23:51;8.20;99.90
770;DHT22;368;48.698;9.116;2023-03-14T04:26:17;7.90;99.90
770;DHT22;368;48.698;9.116;2023-03-14T04:28:46;8.20;99.90
770;DHT22;368;48.698;9.116;2023-03-14T04:31:15;8.10;99.90
770;DHT22;368;48.698;9.116;2023-03-14T04:33:42;8.10;99.90
770;DHT22;368;48.698;9.116;2023-03-14T04:36:09;8.00;99.90
770;DHT22;368;48.698;9.116;2023-03-14T04:38:36;8.10;99.90
770;DHT22;368;48.698;9.116;2023-03-14T04:41:03;8.00;99.90
770;DHT22;368;48.698;9.116;2023-03-14T04:43:30;8.00;99.90
770;DHT22;368;48.698;9.116;2023-03-14T04:45:58;8.00;99.90
770;DHT22;368;48.698;9.116;2023-03-14T04:48:26;8.20;99.90
770;DHT22;368;48.698;9.116;2023-03-14T04:50:53;8.00;99.90
770;DHT22;368;48.698;9.116;2023-03-14T04:53:20;8.20;99.90
770;DHT22;368;48.698;9.116;2023-03-14T04:55:48;7.90;99.90
770;DHT22;368;48.698;9.116;2023-03-14T04:58:15;7.90;99.90
770;DHT22;368;48.698;9.116;2023-03-14T05:00:42;8.00;99.90
770;DHT22;368;48.698;9.116;2023-03-14T05:03:10;8.10;99.90
770;DHT22;368;48.698;9.116;2023-03-14T05:05:37;7.80;99.90
770;DHT22;368;48.698;9.116;2023-03-14T05:08:05;7.90;99.90
770;DHT22;368;48.698;9.116;2023-03-14T05:10:31;8.00;99.90
770;DHT22;368;48.698;9.116;2023-03-14T05:12:58;7.90;99.90
770;DHT22;368;48.698;9.116;2023-03-14T05:15:25;7.90;99.90
770;DHT22;368;48.698;9.116;2023-03-14T05:17:52;8.10;99.90
770;DHT22;368;48.698;9.116;2023-03-14T05:20:21;8.20;99.90
770;DHT22;368;48.698;9.116;2023-03-14T05:22:50;8.00;99.90
770;DHT22;368;48.698;9.116;2023-03-14T05:25:17;8.00;99.90
770;DHT22;368;48.698;9.116;2023-03-14T05:27:43;8.00;99.90
770;DHT22;368;48.698;9.116;2023-03-14T05:30:11;8.20;99.90
770;DHT22;368;48.698;9.116;2023-03-14T05:32:38;8.10;99.90
770;DHT22;368;48.698;9.116;2023-03-14T05:35:05;8.00;99.90
770;DHT22;368;48.698;9.116;2023-03-14T05:37:33;8.10;99.90
770;DHT22;368;48.698;9.116;2023-03-14T05:40:01;8.10;99.90
770;DHT22;368;48.698;9.116;2023-03-14T05:42:28;8.20;99.90
770;DHT22;368;48.698;9.116;2023-03-14T05:44:55;8.20;99.90
770;DHT22;368;48.698;9.116;2023-03-14T05:47:22;8.20;99.90
770;DHT22;368;48.698;9.116;2023-03-14T05:49:49;8.10;99.90
770;DHT22;368;48.698;9.116;2023-03-14T05:52:16;8.40;99.90
770;DHT22;368;48.698;9.116;2023-03-14T05:54:46;8.20;99.90
770;DHT22;368;48.698;9.116;2023-03-14T05:57:13;8.30;99.90
770;DHT22;368;48.698;9.116;2023-03-14T05:59:40;8.20;99.90
770;DHT22;368;48.698;9.116;2023-03-14T06:02:07;8.00;99.90
770;DHT22;368;48.698;9.116;2023-03-14T06:04:33;8.20;99.90
770;DHT22;368;48.698;9.116;2023-03-14T06:07:00;8.10;99.90
770;DHT22;368;48.698;9.116;2023-03-14T06:09:27;8.20;99.90
770;DHT22;368;48.698;9.116;2023-03-14T06:11:56;8.00;99.90
770;DHT22;368;48.698;9.116;2023-03-14T06:14:24;8.30;99.90
770;DHT22;368;48.698;9.116;2023-03-14T06:16:51;8.20;99.90
770;DHT22;368;48.698;9.116;2023-03-14T06:19:18;8.10;99.90
770;DHT22;368;48.698;9.116;2023-03-14T06:21:45;8.20;99.90
770;DHT22;368;48.698;9.116;2023-03-14T06:24:16;8.20;99.90
770;DHT22;368;48.698;9.116;2023-03-14T06:26:42;8.30;99.90
770;DHT22;368;48.698;9.116;2023-03-14T06:29:11;8.20;99.90
770;DHT22;368;48.698;9.116;2023-03-14T06:31:38;8.10;99.90
770;DHT22;368;48.698;9.116;2023-03-14T06:34:05;8.30;99.90
770;DHT22;368;48.698;9.116;2023-03-14T06:36:32;8.30;99.90
770;DHT22;368;48.698;9.116;2023-03-14T06:38:59;8.50;99.90
770;DHT22;368;48.698;9.116;2023-03-14T06:41:26;8.30;99.90
770;DHT22;368;48.698;9.116;2023-03-14T06:43:53;8.30;99.90
770;DHT22;368;48.698;9.116;2023-03-14T06:46:21;8.30;99.90
770;DHT22;368;48.698;9.116;2023-03-14T06:48:48;8.40;99.90
770;DHT22;368;48.698;9.116;2023-03-14T06:51:16;8.90;99.90
770;DHT22;368;48.698;9.116;2023-03-14T06:53:42;8.80;99.90
770;DHT22;368;48.698;9.116;2023-03-14T06:56:09;9.00;99.90
770;DHT22;368;48.698;9.116;2023-03-14T06:58:36;9.20;99.90
770;DHT22;368;48.698;9.116;2023-03-14T07:01:03;9.00;99.90
770;DHT22;368;48.698;9.116;2023-03-14T07:03:31;9.30;99.90
770;DHT22;368;48.698;9.116;2023-03-14T07:05:59;9.00;99.90
770;DHT22;368;48.698;9.116;2023-03-14T07:08:26;8.90;99.90
770;DHT22;368;48.698;9.116;2023-03-14T07:10:56;9.30;99.90
770;DHT22;368;48.698;9.116;2023-03-14T07:13:23;9.20;99.90
770;DHT22;368;48.698;9.116;2023-03-14T07:15:49;9.30;99.90
770;DHT22;368;48.698;9.116;2023-03-14T07:18:16;9.60;99.90
770;DHT22;368;48.698;9.116;2023-03-14T07:20:47;9.50;99.90
770;DHT22;368;48.698;9.116;2023-03-14T07:23:14;9.50;99.90
770;DHT22;368;48.698;9.116;2023-03-14T07:25:41;9.30;99.90
770;DHT22;368;48.698;9.116;2023-03-14T07:28:08;9.60;99.90
770;DHT22;368;48.698;9.116;2023-03-14T07:30:35;9.50;99.90
770;DHT22;368;48.698;9.116;2023-03-14T07:33:02;9.70;99.90
770;DHT22;368;48.698;9.116;2023-03-14T07:35:29;9.80;99.90
770;DHT22;368;48.698;9.116;2023-03-14T07:37:59;9.80;99.90
770;DHT22;368;48.698;9.116;2023-03-14T07:40:26;10.00;99.90
770;DHT22;368;48.698;9.116;2023-03-14T07:42:53;10.00;99.90
770;DHT22;368;48.698;9.116;2023-03-14T07:45:20;9.90;99.90
770;DHT22;368;48.698;9.116;2023-03-14T07:47:47;10.10;99.90
770;DHT22;368;48.698;9.116;2023-03-14T07:50:56;10.00;99.90
770;DHT22;368;48.698;9.116;2023-03-14T07:53:50;10.30;99.90
770;DHT22;368;48.698;9.116;2023-03-14T07:56:16;10.60;99.90
770;DHT22;368;48.698;9.116;2023-03-14T07:58:44;10.70;99.90
770;DHT22;368;48.698;9.116;2023-03-14T08:01:11;11.10;99.90
770;DHT22;368;48.698;9.116;2023-03-14T08:03:38;10.80;99.90
770;DHT22;368;48.698;9.116;2023-03-14T08:06:05;11.00;99.90
770;DHT22;368;48.698;9.116;2023-03-14T08:08:32;11.00;99.90
770;DHT22;368;48.698;9.116;2023-03-14T08:11:04;10.80;99.90
770;DHT22;368;48.698;9.116;2023-03-14T08:13:31;10.80;99.90
770;DHT22;368;48.698;9.116;2023-03-14T08:15:58;11.30;99.90
770;DHT22;368;48.698;9.116;2023-03-14T08:18:25;11.30;99.90
770;DHT22;368;48.698;9.116;2023-03-14T08:20:52;11.10;99.90
770;DHT22;368;48.698;9.116;2023-03-14T08:23:18;11.30;99.90
770;DHT22;368;48.698;9.116;2023-03-14T08:25:48;11.60;99.90
770;DHT22;368;48.698;9.116;2023-03-14T08:28:19;12.20;99.90
770;DHT22;368;48.698;9.116;2023-03-14T08:30:45;12.90;99.00
770;DHT22;368;48.698;9.116;2023-03-14T08:33:12;13.90;97.90
770;DHT22;368;48.698;9.116;2023-03-14T08:35:39;13.90;96.70
770;DHT22;368;48.698;9.116;2023-03-14T08:38:06;13.30;96.30
770;DHT22;368;48.698;9.116;2023-03-14T08:40:33;13.30;96.20
770;DHT22;368;48.698;9.116;2023-03-14T08:42:59;13.50;96.50
770;DHT22;368;48.698;9.116;2023-03-14T08:45:28;13.00;96.50
770;DHT22;368;48.698;9.116;2023-03-14T08:47:55;12.70;96.50
770;DHT22;368;48.698;9.116;2023-03-14T08:50:22;12.20;97.20
770;DHT22;368;48.698;9.116;2023-03-14T08:52:49;12.10;97.80
770;DHT22;368;48.698;9.116;2023-03-14T08:55:16;12.00;98.10
770;DHT22;368;48.698;9.116;2023-03-14T08:57:43;12.40;98.00
770;DHT22;368;48.698;9.116;2023-03-14T09:00:11;11.70;98.90
770;DHT22;368;48.698;9.116;2023-03-14T09:02:42;11.40;99.90
770;DHT22;368;48.698;9.116;2023-03-14T09:05:09;11.60;99.90
770;DHT22;368;48.698;9.116;2023-03-14T09:07:36;11.50;99.90
770;DHT22;368;48.698;9.116;2023-03-14T09:10:05;11.40;99.90
770;DHT22;368;48.698;9.116;2023-03-14T09:12:33;11.10;99.90
770;DHT22;368;48.698;9.116;2023-03-14T09:14:59;11.50;99.90
770;DHT22;368;48.698;9.116;2023-03-14T09:17:27;11.10;99.90
770;DHT22;368;48.698;9.116;2023-03-14T09:19:55;11.10;99.90
770;DHT22;368;48.698;9.116;2023-03-14T09:22:22;11.20;99.90
770;DHT22;368;48.698;9.116;2023-03-14T09:24:49;11.50;99.90
770;DHT22;368;48.698;9.116;2023-03-14T09:27:17;11.40;99.90
770;DHT22;368;48.698;9.116;2023-03-14T09:29:44;11.40;99.90
770;DHT22;368;48.698;9.116;2023-03-14T09:32:10;11.30;99.90
770;DHT22;368;48.698;9.116;2023-03-14T09:34:37;11.20;99.90
770;DHT22;368;48.698;9.116;2023-03-14T09:37:05;11.40;99.90
770;DHT22;368;48.698;9.116;2023-03-14T09:39:32;11.40;99.90
770;DHT22;368;48.698;9.116;2023-03-14T09:42:04;11.50;99.90
770;DHT22;368;48.698;9.116;2023-03-14T09:44:33;11.20;99.90
770;DHT22;368;48.698;9.116;2023-03-14T09:47:05;11.30;99.90
770;DHT22;368;48.698;9.116;2023-03-14T09:49:34;11.00;99.90
770;DHT22;368;48.698;9.116;2023-03-14T09:52:10;11.10;99.90
770;DHT22;368;48.698;9.116;2023-03-14T09:54:43;11.10;99.90
770;DHT22;368;48.698;9.116;2023-03-14T09:57:13;11.20;99.90
770;DHT22;368;48.698;9.116;2023-03-14T09:59:43;11.30;99.90
770;DHT22;368;48.698;9.116;2023-03-14T10:02:17;11.00;99.90
770;DHT22;368;48.698;9.116;2023-03-14T10:04:45;11.00;99.90
770;DHT22;368;48.698;9.116;2023-03-14T10:07:16;11.40;99.90
770;DHT22;368;48.698;9.116;2023-03-14T10:09:46;12.10;99.90
770;DHT22;368;48.698;9.116;2023-03-14T10:12:14;12.10;99.90
770;DHT22;368;48.698;9.116;2023-03-14T10:14:47;12.30;99.50
770;DHT22;368;48.698;9.116;2023-03-14T10:17:16;14.20;97.30
770;DHT22;368;48.698;9.116;2023-03-14T10:19:54;14.50;95.70
770;DHT22;368;48.698;9.116;2023-03-14T10:22:27;14.80;95.20
770;DHT22;368;48.698;9.116;2023-03-14T10:24:57;14.90;93.60
770;DHT22;368;48.698;9.116;2023-03-14T10:27:29;14.40;94.60
770;DHT22;368;48.698;9.116;2023-03-14T10:29:58;13.60;95.80
770;DHT22;368;48.698;9.116;2023-03-14T10:32:31;12.90;96.90
770;DHT22;368;48.698;9.116;2023-03-14T10:35:19;13.00;96.70
770;DHT22;368;48.698;9.116;2023-03-14T10:37:57;12.70;96.80
770;DHT22;368;48.698;9.116;2023-03-14T10:40:27;13.20;96.60
770;DHT22;368;48.698;9.116;2023-03-14T10:42:54;13.10;97.10
770;DHT22;368;48.698;9.116;2023-03-14T10:45:35;12.70;97.20
770;DHT22;368;48.698;9.116;2023-03-14T10:50:57;12.10;98.00
770;DHT22;368;48.698;9.116;2023-03-14T10:53:26;12.30;98.10
770;DHT22;368;48.698;9.116;2023-03-14T10:55:55;12.10;99.60
770;DHT22;368;48.698;9.116;2023-03-14T10:58:24;12.00;99.80
770;DHT22;368;48.698;9.116;2023-03-14T11:01:00;11.70;99.90
770;DHT22;368;48.698;9.116;2023-03-14T11:03:31;11.50;99.90
770;DHT22;368;48.698;9.116;2023-03-14T11:06:05;11.50;99.90
770;DHT22;368;48.698;9.116;2023-03-14T11:08:37;12.00;99.90
770;DHT22;368;48.698;9.116;2023-03-14T11:11:14;11.90;99.90
770;DHT22;368;48.698;9.116;2023-03-14T11:13:52;11.70;99.90
770;DHT22;368;48.698;9.116;2023-03-14T11:16:24;11.90;99.90
770;DHT22;368;48.698;9.116;2023-03-14T11:19:20;11.70;99.90
770;DHT22;368;48.698;9.116;2023-03-14T11:21:54;11.70;99.90
770;DHT22;368;48.698;9.116;2023-03-14T11:24:36;11.50;99.90
770;DHT22;368;48.698;9.116;2023-03-14T11:27:12;11.30;99.90
770;DHT22;368;48.698;9.116;2023-03-14T11:29:54;11.30;99.90
770;DHT22;368;48.698;9.116;2023-03-14T11:32:31;11.30;99.90
770;DHT22;368;48.698;9.116;2023-03-14T11:35:04;11.00;99.90
770;DHT22;368;48.698;9.116;2023-03-14T11:37:36;11.40;99.90
770;DHT22;368;48.698;9.116;2023-03-14T11:40:13;11.10;99.90
770;DHT22;368;48.698;9.116;2023-03-14T11:42:43;10.60;99.90
770;DHT22;368;48.698;9.116;2023-03-14T11:45:16;10.40;99.90
770;DHT22;368;48.698;9.116;2023-03-14T11:47:46;10.90;99.90
770;DHT22;368;48.698;9.116;2023-03-14T11:50:21;10.90;99.90
770;DHT22;368;48.698;9.116;2023-03-14T11:52:52;11.30;99.90
770;DHT22;368;48.698;9.116;2023-03-14T11:55:25;10.80;99.90
770;DHT22;368;48.698;9.116;2023-03-14T11:58:00;11.00;99.90
770;DHT22;368;48.698;9.116;2023-03-14T12:00:28;11.00;99.90
770;DHT22;368;48.698;9.116;2023-03-14T12:02:59;10.70;99.90
770;DHT22;368;48.698;9.116;2023-03-14T12:05:56;10.70;99.90
770;DHT22;368;48.698;9.116;2023-03-14T12:08:39;10.50;99.90
770;DHT22;368;48.698;9.116;2023-03-14T12:11:15;10.30;99.90
770;DHT22;368;48.698;9.116;2023-03-14T12:13:46;10.20;99.90
770;DHT22;368;48.698;9.116;2023-03-14T12:16:33;10.10;99.90
770;DHT22;368;48.698;9.116;2023-03-14T12:19:29;10.40;99.90
770;DHT22;368;48.698;9.116;2023-03-14T12:22:00;10.40;99.90
770;DHT22;368;48.698;9.116;2023-03-14T12:24:30;11.60;99.90
770;DHT22;368;48.698;9.116;2023-03-14T12:27:06;14.10;99.90
770;DHT22;368;48.698;9.116;2023-03-14T12:29:57;14.40;95.90
770;DHT22;368;48.698;9.116;2023-03-14T12:32:25;13.60;95.40
770;DHT22;368;48.698;9.116;2023-03-14T12:34:52;13.00;96.40
770;DHT22;368;48.698;9.116;2023-03-14T12:37:29;12.70;95.90
770;DHT22;368;48.698;9.116;2023-03-14T12:40:11;14.20;93.70
770;DHT22;368;48.698;9.116;2023-03-14T12:42:57;14.90;91.50
770;DHT22;368;48.698;9.116;2023-03-14T12:45:27;14.70;90.20
770;DHT22;368;48.698;9.116;2023-03-14T12:48:06;14.30;90.00
770;DHT22;368;48.698;9.116;2023-03-14T12:50:37;14.40;90.10
770;DHT22;368;48.698;9.116;2023-03-14T12:56:25;13.70;90.00
770;DHT22;368;48.698;9.116;2023-03-14T12:59:18;13.80;85.80
770;DHT22;368;48.698;9.116;2023-03-14T13:01:55;13.90;82.50
770;DHT22;368;48.698;9.116;2023-03-14T13:04:28;13.20;83.00
770;DHT22;368;48.698;9.116;2023-03-14T13:06:56;13.40;84.00
770;DHT22;368;48.698;9.116;2023-03-14T13:12:49;12.60;85.30
770;DHT22;368;48.698;9.116;2023-03-14T13:15:23;12.20;82.80
770;DHT22;368;48.698;9.116;2023-03-14T13:17:53;13.10;81.90
770;DHT22;368;48.698;9.116;2023-03-14T13:20:26;13.90;78.30
770;DHT22;368;48.698;9.116;2023-03-14T13:22:54;13.00;77.20
770;DHT22;368;48.698;9.116;2023-03-14T13:25:21;12.70;79.60
770;DHT22;368;48.698;9.116;2023-03-14T13:27:51;13.00;81.60
770;DHT22;368;48.698;9.116;2023-03-14T13:30:23;12.70;81.50
770;DHT22;368;48.698;9.116;2023-03-14T13:32:53;13.50;78.30
770;DHT22;368;48.698;9.116;2023-03-14T13:35:23;12.50;77.10
770;DHT22;368;48.698;9.116;2023-03-14T13:37:59;11.80;77.20
770;DHT22;368;48.698;9.116;2023-03-14T13:40:30;11.00;78.70
770;DHT22;368;48.698;9.116;2023-03-14T13:43:03;10.40;80.60
770;DHT22;368;48.698;9.116;2023-03-14T13:45:45;9.90;82.90
770;DHT22;368;48.698;9.116;2023-03-14T13:48:13;9.80;84.30
770;DHT22;368;48.698;9.116;2023-03-14T13:50:46;9.60;84.50
770;DHT22;368;48.698;9.116;2023-03-14T13:53:13;9.80;83.20
770;DHT22;368;48.698;9.116;2023-03-14T13:55:40;9.80;83.10
770;DHT22;368;48.698;9.116;2023-03-14T13:58:19;9.40;81.10
770;DHT22;368;48.698;9.116;2023-03-14T14:00:56;9.60;82.00
770;DHT22;368;48.698;9.116;2023-03-14T14:03:26;9.60;82.50
770;DHT22;368;48.698;9.116;2023-03-14T14:05:55;9.60;81.10
770;DHT22;368;48.698;9.116;2023-03-14T14:08:23;9.40;80.60
770;DHT22;368;48.698;9.116;2023-03-14T14:10:50;9.40;80.80
770;DHT22;368;48.698;9.116;2023-03-14T14:13:21;9.20;80.70
770;DHT22;368;48.698;9.116;2023-03-14T14:15:51;9.30;80.70
770;DHT22;368;48.698;9.116;2023-03-14T14:18:22;9.40;81.00
770;DHT22;368;48.698;9.116;2023-03-14T14:20:51;8.80;79.40
770;DHT22;368;48.698;9.116;2023-03-14T14:23:19;8.80;80.40
770;DHT22;368;48.698;9.116;2023-03-14T14:25:51;9.20;82.00
770;DHT22;368;48.698;9.116;2023-03-14T14:28:24;9.00;78.90
770;DHT22;368;48.698;9.116;2023-03-14T14:31:16;9.00;80.40
770;DHT22;368;48.698;9.116;2023-03-14T14:33:53;9.20;81.60
770;DHT22;368;48.698;9.116;2023-03-14T14:36:22;9.00;80.20
770;DHT22;368;48.698;9.116;2023-03-14T14:38:54;8.60;79.80
770;DHT22;368;48.698;9.116;2023-03-14T14:41:27;8.40;79.90
770;DHT22;368;48.698;9.116;2023-03-14T14:43:57;8.40;81.00
770;DHT22;368;48.698;9.116;2023-03-14T14:46:27;8.60;81.60
770;DHT22;368;48.698;9.116;2023-03-14T14:48:57;8.60;81.60
770;DHT22;368;48.698;9.116;2023-03-14T14:51:32;8.30;81.40
770;DHT22;368;48.698;9.116;2023-03-14T14:54:04;8.50;81.70
770;DHT22;368;48.698;9.116;2023-03-14T14:56:37;8.50;81.80
770;DHT22;368;48.698;9.116;2023-03-14T14:59:06;8.30;80.90
770;DHT22;368;48.698;9.116;2023-03-14T15:01:34;8.50;81.40
770;DHT22;368;48.698;9.116;2023-03-14T15:04:11;8.50;81.70
770;DHT22;368;48.698;9.116;2023-03-14T15:06:40;8.90;82.10
770;DHT22;368;48.698;9.116;2023-03-14T15:09:09;9.00;80.80
770;DHT22;368;48.698;9.116;2023-03-14T15:11:37;9.10;80.20
770;DHT22;368;48.698;9.116;2023-03-14T15:14:04;10.90;77.40
770;DHT22;368;48.698;9.116;2023-03-14T15:16:33;12.60;72.80
770;DHT22;368;48.698;9.116;2023-03-14T15:19:01;12.70;70.80
770;DHT22;368;48.698;9.116;2023-03-14T15:21:32;11.60;72.30
770;DHT22;368;48.698;9.116;2023-03-14T15:24:00;11.50;72.70
770;DHT22;368;48.698;9.116;2023-03-14T15:26:28;12.30;71.50
770;DHT22;368;48.698;9.116;2023-03-14T15:28:55;12.10;70.50
770;DHT22;368;48.698;9.116;2023-03-14T15:31:22;11.40;72.60
770;DHT22;368;48.698;9.116;2023-03-14T15:33:49;11.60;72.50
770;DHT22;368;48.698;9.116;2023-03-14T15:36:22;9.80;75.50
770;DHT22;368;48.698;9.116;2023-03-14T15:38:52;9.60;78.20
770;DHT22;368;48.698;9.116;2023-03-14T15:41:19;9.20;78.40
770;DHT22;368;48.698;9.116;2023-03-14T15:43:48;9.00;79.80
770;DHT22;368;48.698;9.116;2023-03-14T15:46:15;8.90;81.00
770;DHT22;368;48.698;9.116;2023-03-14T15:48:42;8.80;81.60
770;DHT22;368;48.698;9.116;2023-03-14T15:51:09;8.30;81.70
770;DHT22;368;48.698;9.116;2023-03-14T15:53:36;8.40;82.60
770;DHT22;368;48.698;9.116;2023-03-14T15:56:05;8.20;82.40
770;DHT22;368;48.698;9.116;2023-03-14T15:58:32;8.20;83.50
770;DHT22;368;48.698;9.116;2023-03-14T16:01:00;8.50;84.70
770;DHT22;368;48.698;9.116;2023-03-14T16:03:28;8.30;84.10
770;DHT22;368;48.698;9.116;2023-03-14T16:05:55;8.50;84.40
770;DHT22;368;48.698;9.116;2023-03-14T16:08:22;8.50;84.60
770;DHT22;368;48.698;9.116;2023-03-14T16:10:50;8.50;83.70
770;DHT22;368;48.698;9.116;2023-03-14T16:13:19;8.60;83.80
770;DHT22;368;48.698;9.116;2023-03-14T16:15:57;8.60;83.50
770;DHT22;368;48.698;9.116;2023-03-14T16:18:24;8.60;84.30
770;DHT22;368;48.698;9.116;2023-03-14T16:20:54;8.80;84.40
770;DHT22;368;48.698;9.116;2023-03-14T16:23:23;10.10;81.50
770;DHT22;368;48.698;9.116;2023-03-14T16:25:50;10.00;79.00
770;DHT22;368;48.698;9.116;2023-03-14T16:28:18;9.20;81.30
770;DHT22;368;48.698;9.116;2023-03-14T16:30:46;8.60;82.90
770;DHT22;368;48.698;9.116;2023-03-14T16:33:13;8.30;84.70
770;DHT22;368;48.698;9.116;2023-03-14T16:35:40;8.20;85.40
770;DHT22;368;48.698;9.116;2023-03-14T16:38:07;7.90;85.90
770;DHT22;368;48.698;9.116;2023-03-14T16:40:34;8.10;86.00
770;DHT22;368;48.698;9.116;2023-03-14T16:43:01;7.80;85.90
770;DHT22;368;48.698;9.116;2023-03-14T16:45:30;8.00;86.50
770;DHT22;368;48.698;9.116;2023-03-14T16:47:57;7.90;86.70
770;DHT22;368;48.698;9.116;2023-03-14T16:50:24;8.10;87.00
770;DHT22;368;48.698;9.116;2023-03-14T16:52:51;7.90;86.90
770;DHT22;368;48.698;9.116;2023-03-14T16:55:20;8.10;87.40
770;DHT22;368;48.698;9.116;2023-03-14T16:57:48;8.10;88.00
770;DHT22;368;48.698;9.116;2023-03-14T17:00:17;7.70;88.00
770;DHT22;368;48.698;9.116;2023-03-14T17:02:46;7.70;89.00
770;DHT22;368;48.698;9.116;2023-03-14T17:05:13;7.70;89.10
770;DHT22;368;48.698;9.116;2023-03-14T17:07:39;7.40;89.40
770;DHT22;368;48.698;9.116;2023-03-14T17:10:07;7.50;90.40
770;DHT22;368;48.698;9.116;2023-03-14T17:12:35;7.40;90.90